Data for 04/27/2013

Time Sea-Level Adjusted Pressure Absolute Pressure Temperature Relative Humidity Dew Point   
(mb) (inHg) (mb) (inHg) (C) (F) (%) (C) (F)
00:05 1023 30.21 852 25.16 9.4 49 39 -3.8 25.1
00:10 1023 30.21 852 25.16 9.1 48.3 38 -4.4 24.1
00:15 1023 30.21 852 25.16 9.4 48.9 36 -4.8 23.3
00:20 1023 30.21 852 25.16 10 50 35 -4.7 23.5
00:25 1023 30.21 852 25.16 10.1 50.1 36 -4.1 24.6
00:30 1023 30.21 852 25.16 9.6 49.3 39 -3.7 25.3
00:35 1023 30.21 852 25.16 9.1 48.4 41 -3.6 25.6
00:40 1023 30.21 852 25.16 8.8 47.9 39 -4.3 24.2
00:45 1023 30.21 852 25.16 8.6 47.4 40 -4.1 24.7
00:50 1023 30.21 852 25.16 8.4 47.2 41 -4.1 24.5
00:55 1023 30.21 852 25.16 8.3 46.9 41 -4.2 24.4
01:00 1023 30.21 852 25.16 8.2 46.8 41 -4.1 24.6
01:05 1023 30.21 852 25.16 8.1 46.6 42 -3.9 24.9
01:10 1023 30.21 852 25.16 7.7 45.8 45 -3.5 25.7
01:15 1023 30.21 852 25.16 6.9 44.5 48 -3.4 26
01:20 1023 30.21 852 25.16 6.6 43.9 47 -3.8 25.1
01:25 1023 30.21 852 25.16 7.1 44.9 44 -4.4 24
01:30 1023 30.21 852 25.16 7.5 45.6 43 -4.4 24.2
01:35 1023 30.21 852 25.16 7.8 46 43 -4 24.8
01:40 1023 30.21 852 25.16 7.3 45.2 45 -3.9 24.9
01:45 1023 30.21 852 25.16 7.2 45 44 -4.2 24.5
01:50 1023 30.21 852 25.16 7.5 45.4 44 -4 24.8
01:55 1023 30.21 852 25.16 7.6 45.6 43 -4.4 24.2
02:00 1023 30.21 852 25.16 8 46.3 41 -4.5 23.9
02:05 1023 30.21 852 25.16 8 46.4 42 -4.1 24.7
02:10 1023 30.21 852 25.16 7.6 45.7 44 -3.9 24.9
02:15 1023 30.21 852 25.16 7.3 45.1 45 -3.8 25.1
02:20 1023 30.21 852 25.16 6.8 44.3 46 -4 24.8
02:25 1023 30.21 852 25.16 6.8 44.3 46 -4.1 24.6
02:30 1023 30.21 852 25.16 6.8 44.2 46 -4.1 24.7
02:35 1023 30.21 852 25.16 6.7 44.1 46 -4.2 24.5
02:40 1023 30.21 852 25.16 6.9 44.5 44 -4.3 24.2
02:45 1023 30.21 852 25.16 7 44.6 45 -4.1 24.7
02:50 1023 30.21 852 25.16 7 44.6 45 -4.1 24.6
02:55 1023 30.21 852 25.16 6.8 44.2 46 -4.1 24.7
03:00 1023 30.21 852 25.16 6.6 43.9 47 -3.9 25.1
03:05 1023 30.21 852 25.16 6.1 43.1 49 -3.8 25.2
03:10 1023 30.21 852 25.16 6.1 42.9 49 -4 24.9
03:15 1023 30.21 852 25.16 6.1 43 49 -3.9 25.1
03:20 1023 30.21 852 25.16 6.1 43 48 -4 24.8
03:25 1023 30.21 852 25.16 6.2 43.2 48 -4.1 24.7
03:30 1023 30.21 852 25.16 6.2 43.2 48 -3.9 24.9
03:35 1023 30.21 852 25.16 6.2 43.1 47 -4.2 24.5
03:40 1023 30.21 852 25.16 6.5 43.7 46 -4.2 24.5
03:45 1023 30.21 852 25.16 6.6 43.8 46 -4.1 24.6
03:50 1023 30.21 852 25.16 6.8 44.2 44 -4.6 23.7
03:55 1022 30.18 852 25.16 7.2 44.9 43 -4.5 23.8
04:00 1022 30.18 852 25.16 7.2 45 44 -4.2 24.4
04:05 1022 30.18 852 25.16 7 44.7 44 -4.5 23.9
04:10 1022 30.18 852 25.16 7.2 45 43 -4.5 23.9
04:15 1022 30.18 852 25.16 7.4 45.3 42 -4.6 23.8
04:20 1022 30.18 852 25.16 7.5 45.5 43 -4.3 24.3
04:25 1022 30.18 851 25.13 7.1 44.8 45 -4.1 24.6
04:30 1022 30.18 851 25.13 6.8 44.3 46 -4.1 24.7
04:35 1022 30.18 851 25.13 6.9 44.4 45 -4.2 24.5
04:40 1022 30.18 851 25.13 6.8 44.3 46 -4.1 24.6
04:45 1022 30.18 851 25.13 7 44.6 46 -4 24.9
04:50 1022 30.18 851 25.13 6.7 44.1 47 -3.9 25
04:55 1022 30.18 851 25.13 6.4 43.4 48 -3.9 25
05:00 1022 30.18 851 25.13 6 42.9 49 -4 24.8
05:05 1022 30.18 851 25.13 6 42.9 48 -4.1 24.7
05:10 1022 30.18 851 25.13 6.3 43.3 46 -4.4 24.1
05:15 1022 30.18 851 25.13 6.7 44.1 45 -4.3 24.2
05:20 1022 30.18 851 25.13 6.9 44.4 45 -4.2 24.4
05:25 1022 30.18 851 25.13 7 44.5 45 -4.2 24.4
05:30 1022 30.18 851 25.13 6.9 44.5 45 -4.2 24.5
05:35 1022 30.18 851 25.13 7 44.5 45 -4.1 24.6
05:40 1022 30.18 852 25.16 6.7 44.1 46 -4.1 24.7
05:45 1022 30.18 852 25.16 6.3 43.3 47 -4.1 24.6
05:50 1022 30.18 852 25.16 6.2 43.1 46 -4.5 23.9
05:55 1023 30.21 852 25.16 6.8 44.2 45 -4.2 24.4
06:00 1023 30.21 852 25.16 7 44.6 45 -4.2 24.4
06:05 1023 30.21 852 25.16 7.2 44.9 44 -4.1 24.6
06:10 1022 30.18 852 25.16 7.3 45.1 45 -4 24.8
06:15 1023 30.21 852 25.16 7.3 45.2 45 -3.8 25.1
06:20 1023 30.21 852 25.16 7.5 45.5 44 -3.8 25.1
06:25 1023 30.21 852 25.16 7.8 46 43 -3.9 25
06:30 1023 30.21 852 25.16 8 46.3 43 -3.7 25.3
06:35 1023 30.21 852 25.16 8.1 46.5 43 -3.7 25.4
06:40 1023 30.21 852 25.16 8.2 46.7 44 -3.4 25.9
06:45 1022 30.18 852 25.16 8 46.4 44 -3.5 25.7
06:50 1022 30.18 852 25.16 8.2 46.8 43 -3.5 25.6
06:55 1022 30.18 851 25.13 8.7 47.6 42 -3.6 25.5
07:00 1022 30.18 851 25.13 9.2 48.6 40 -3.6 25.4
07:05 1022 30.18 851 25.13 9.8 49.6 38 -3.7 25.3
07:10 1022 30.18 851 25.13 10.3 50.6 38 -3.4 25.9
07:15 1022 30.18 851 25.13 10.7 51.3 37 -3.5 25.7
07:20 1022 30.18 851 25.13 11 51.8 38 -2.8 26.9
07:25 1022 30.18 851 25.13 11.3 52.3 37 -2.7 27.1
07:30 1021 30.15 851 25.13 11.5 52.7 36 -3.1 26.5
07:35 1021 30.15 851 25.13 11.7 53.1 33 -4 24.8
07:40 1021 30.15 850 25.1 12.1 53.8 33 -3.8 25.2
07:45 1021 30.15 851 25.13 12.6 54.6 31 -4 24.9
07:50 1022 30.18 851 25.13 13.1 55.5 30 -3.9 25
07:55 1022 30.18 851 25.13 13.5 56.3 30 -3.5 25.7
08:00 1022 30.18 851 25.13 13.9 57.1 29 -3.6 25.5
08:05 1022 30.18 851 25.13 14 57.1 29 -3.8 25.2
08:10 1022 30.18 851 25.13 14.4 57.9 28 -3.6 25.5
08:15 1022 30.18 851 25.13 14.8 58.7 27 -3.8 25.1
08:20 1022 30.18 851 25.13 15.1 59.2 27 -3.8 25.2
08:25 1022 30.18 851 25.13 15.4 59.7 26 -3.9 24.9
08:30 1022 30.18 851 25.13 15.6 60.2 25 -4.4 24
08:35 1022 30.18 851 25.13 16.1 61 26 -3.2 26.2
08:40 1022 30.18 851 25.13 16.5 61.7 23 -4.4 24.1
08:45 1021 30.15 851 25.13 16.5 61.8 18 -7.6 18.3
08:50 1021 30.15 851 25.13 16.9 62.5 17 -8 17.6
08:55 1021 30.15 850 25.1 17 62.6 15 -9.4 15
09:00 1021 30.15 850 25.1 16.9 62.5 15 -9.4 15
09:05 1021 30.15 850 25.1 16.9 62.4 15 -9.6 14.7
09:10 1021 30.15 851 25.13 17.1 62.8 14 -10.7 12.8
09:15 1021 30.15 851 25.13 16.8 62.3 14 -10.6 12.8
09:20 1021 30.15 851 25.13 16.9 62.5 15 -9.9 14.1
09:25 1021 30.15 851 25.13 17.1 62.7 15 -9.9 14.2
09:30 1021 30.15 851 25.13 17.1 62.7 15 -9.7 14.5
09:35 1021 30.15 851 25.13 17.3 63.1 15 -9.5 14.9
09:40 1021 30.15 850 25.1 17.7 63.8 14 -9.8 14.4
09:45 1021 30.15 850 25.1 17.8 64 14 -9.6 14.7
09:50 1021 30.15 850 25.1 17.7 63.9 14 -10 14
09:55 1021 30.15 850 25.1 18 64.4 14 -9.8 14.4
10:00 1021 30.15 850 25.1 18.2 64.7 15 -9.1 15.6
10:05 1021 30.15 850 25.1 18.2 64.7 14 -9.3 15.2
10:10 1021 30.15 850 25.1 18.3 64.9 14 -9.6 14.7
10:15 1021 30.15 850 25.1 18.5 65.2 14 -9.4 15
10:20 1021 30.15 850 25.1 18.3 64.9 14 -9.2 15.4
10:25 1021 30.15 850 25.1 18.2 64.8 14 -9.2 15.4
10:30 1021 30.15 850 25.1 19.1 66.3 14 -8.9 16
10:35 1021 30.15 850 25.1 18.3 65 14 -9.1 15.5
10:40 1021 30.15 850 25.1 18.2 64.8 14 -9.3 15.3
10:45 1021 30.15 850 25.1 18.4 65.2 14 -9.7 14.5
10:50 1021 30.15 850 25.1 18.2 64.7 14 -9.7 14.6
10:55 1021 30.15 850 25.1 18.1 64.6 15 -9.3 15.3
11:00 1021 30.15 850 25.1 18.4 65.1 14 -9.6 14.7
11:05 1020 30.12 850 25.1 18 64.3 14 -9.8 14.4
11:10 1020 30.12 850 25.1 17.7 63.9 14 -9.7 14.5
11:15 1020 30.12 850 25.1 17.6 63.8 14 -9.9 14.2
11:20 1020 30.12 849 25.07 17.7 63.9 14 -9.7 14.6
11:25 1020 30.12 849 25.07 17.9 64.2 15 -9.3 15.2
11:30 1020 30.12 849 25.07 18.2 64.8 14 -9.7 14.5
11:35 1020 30.12 849 25.07 18.5 65.4 14 -9.5 14.9
11:40 1020 30.12 849 25.07 19.6 67.3 13 -9.2 15.5
11:45 1020 30.12 849 25.07 19.9 67.9 13 -8.8 16.1
11:50 1020 30.12 849 25.07 20 68 13 -8.7 16.3
11:55 1019 30.09 849 25.07 19.6 67.2 14 -8.9 16
12:00 1019 30.09 849 25.07 19 66.2 13 -9.5 14.9
12:05 1019 30.09 848 25.04 19.3 66.7 14 -9 15.7
12:10 1019 30.09 848 25.04 19.9 67.8 13 -9.1 15.5
12:15 1019 30.09 848 25.04 19.4 66.8 14 -9.2 15.5
12:20 1019 30.09 848 25.04 19.5 67.1 14 -9.1 15.7
12:25 1019 30.09 848 25.04 19.4 66.9 14 -9 15.9
12:30 1019 30.09 848 25.04 19.5 67.2 14 -8.8 16.2
12:35 1019 30.09 848 25.04 20.3 68.5 13 -9.2 15.4
12:40 1019 30.09 848 25.04 20.5 68.8 13 -9 15.7
12:45 1019 30.09 848 25.04 20.7 69.3 13 -8.8 16.2
12:50 1019 30.09 848 25.04 20.8 69.4 13 -8.8 16.1
12:55 1019 30.09 848 25.04 20.6 69.1 13 -8.8 16.2
13:00 1019 30.09 848 25.04 21 69.7 13 -8.5 16.6
13:05 1018 30.06 848 25.04 20.8 69.4 13 -8.1 17.5
13:10 1018 30.06 848 25.04 20.4 68.8 14 -8 17.6
13:15 1018 30.06 847 25.01 20.4 68.8 14 -8.3 17.1
13:20 1018 30.06 847 25.01 20.6 69 13 -8.6 16.5
13:25 1018 30.06 847 25.01 20.6 69.1 13 -8.7 16.4
13:30 1018 30.06 847 25.01 20.5 68.8 14 -8.2 17.2
13:35 1018 30.06 847 25.01 20.6 69 14 -8 17.5
13:40 1018 30.06 847 25.01 20.7 69.2 13 -8.3 17
13:45 1018 30.06 847 25.01 20.7 69.2 12 -9.1 15.6
13:50 1018 30.06 847 25.01 20.6 69.2 13 -8.5 16.8
13:55 1018 30.06 847 25.01 20.9 69.6 12 -9.1 15.6
14:00 1018 30.06 847 25.01 20.6 69.1 13 -8.7 16.4
14:05 1018 30.06 847 25.01 20.3 68.6 13 -9.3 15.3
14:10 1018 30.06 847 25.01 20.1 68.2 13 -8.8 16.1
14:15 1018 30.06 847 25.01 20.3 68.5 13 -8.9 16
14:20 1018 30.06 847 25.01 20.5 68.9 13 -9 15.8
14:25 1018 30.06 847 25.01 20.6 69.1 13 -9 15.9
14:30 1018 30.06 847 25.01 20.4 68.7 13 -9.2 15.5
14:35 1017 30.03 847 25.01 20.3 68.6 13 -8.9 16
14:40 1017 30.03 847 25.01 20.4 68.7 13 -8.7 16.4
14:45 1017 30.03 847 25.01 20.4 68.7 13 -9.1 15.7
14:50 1017 30.03 846 24.98 20.3 68.6 13 -9 15.7
14:55 1017 30.03 846 24.98 20.8 69.5 13 -8.9 16.1
15:00 1017 30.03 846 24.98 20.8 69.5 12 -9.1 15.6
15:05 1017 30.03 846 24.98 20.4 68.8 13 -9.2 15.5
15:10 1017 30.03 846 24.98 20.3 68.5 13 -9 15.7
15:15 1017 30.03 846 24.98 20.3 68.5 13 -9 15.7
15:20 1017 30.03 846 24.98 20.3 68.6 13 -8.9 16
15:25 1017 30.03 846 24.98 20.7 69.2 13 -8.9 16
15:30 1017 30.03 846 24.98 20.3 68.6 13 -9 15.7
15:35 1017 30.03 846 24.98 20.1 68.1 13 -9.1 15.7
15:40 1017 30.03 846 24.98 20 67.9 13 -8.9 16
15:45 1017 30.03 846 24.98 20 68 14 -8.6 16.4
15:50 1017 30.03 846 24.98 20.1 68.1 13 -9 15.8
15:55 1017 30.03 846 24.98 20 68 13 -8.9 16
16:00 1017 30.03 846 24.98 20.1 68.1 14 -8.3 17
16:05 1016 30 846 24.98 20.3 68.5 13 -8.8 16.1
16:10 1016 30 845 24.95 20.5 68.8 13 -8.3 17.1
16:15 1016 30 845 24.95 20.6 69 13 -8.6 16.6
16:20 1016 30 845 24.95 20.4 68.7 13 -8.8 16.1
16:25 1016 30 845 24.95 20.3 68.5 13 -8.8 16.1
16:30 1016 30 845 24.95 20.1 68.2 13 -8.8 16.2
16:35 1016 30 845 24.95 20.2 68.3 14 -8.5 16.7
16:40 1016 30 845 24.95 20.1 68.2 13 -8.7 16.4
16:45 1016 30 845 24.95 20.2 68.3 13 -8.6 16.4
16:50 1016 30 845 24.95 20.3 68.5 13 -8.5 16.6
16:55 1016 30 845 24.95 20.9 69.6 13 -8.4 16.8
17:00 1016 30 845 24.95 21.1 69.9 13 -8.1 17.4
17:05 1016 30 845 24.95 20.6 69.1 13 -8.3 17
17:10 1016 30 845 24.95 20.4 68.8 13 -8.6 16.4
17:15 1016 30 845 24.95 20.4 68.6 13 -8.5 16.6
17:20 1016 30 845 24.95 20.2 68.4 13 -8.6 16.5
17:25 1016 30 845 24.95 20.1 68.1 14 -8.5 16.7
17:30 1016 30 845 24.95 20 68 14 -8.5 16.8
17:35 1016 30 845 24.95 19.9 67.8 14 -8.5 16.6
17:40 1016 30 845 24.95 19.8 67.6 14 -8.5 16.7
17:45 1016 30 845 24.95 19.7 67.5 14 -8.6 16.6
17:50 1016 30 845 24.95 19.7 67.5 14 -8.5 16.8
17:55 1016 30 845 24.95 19.7 67.5 14 -8.1 17.4
18:00 1016 30 845 24.95 19.7 67.4 14 -8.1 17.5
18:05 1016 30 845 24.95 19.7 67.4 15 -7.9 17.7
18:10 1016 30 845 24.95 19.6 67.3 15 -7.9 17.7
18:15 1016 30 845 24.95 19.7 67.4 14 -8.2 17.2
18:20 1016 30 845 24.95 19.7 67.4 15 -8 17.7
18:25 1016 30 845 24.95 19.6 67.2 15 -8 17.7
18:30 1015 29.97 845 24.95 19.6 67.2 14 -8.2 17.2
18:35 1015 29.97 845 24.95 19.5 67.2 15 -7.9 17.8
18:40 1015 29.97 845 24.95 19.4 67 15 -8.1 17.4
18:45 1015 29.97 845 24.95 19.3 66.7 15 -7.9 17.8
18:50 1015 29.97 845 24.95 19.2 66.6 15 -8 17.6
18:55 1015 29.97 845 24.95 19.2 66.5 15 -7.8 17.9
19:00 1015 29.97 844 24.92 19.1 66.4 15 -8 17.5
19:05 1015 29.97 844 24.92 19 66.2 15 -7.9 17.8
19:10 1015 29.97 844 24.92 18.9 66.1 15 -8 17.5
19:15 1015 29.97 844 24.92 18.9 65.9 15 -8.4 17
19:20 1015 29.97 844 24.92 19 66.2 15 -8.6 16.6
19:25 1015 29.97 844 24.92 19 66.2 15 -8.5 16.7
19:30 1015 29.97 844 24.92 18.9 66 15 -8.6 16.5
19:35 1015 29.97 844 24.92 18.8 65.9 15 -8.4 16.8
19:40 1015 29.97 844 24.92 18.6 65.5 15 -8.4 16.8
19:45 1015 29.97 844 24.92 18.6 65.4 15 -8.4 16.8
19:50 1015 29.97 845 24.95 18.4 65.2 15 -8.2 17.2
19:55 1015 29.97 845 24.95 18.3 64.9 16 -8.2 17.2
20:00 1015 29.97 845 24.95 18.1 64.6 16 -7.9 17.8
20:05 1015 29.97 845 24.95 18 64.4 17 -7.6 18.4
20:10 1015 29.97 845 24.95 17.9 64.3 16 -8 17.7
20:15 1015 29.97 845 24.95 17.9 64.1 17 -7.6 18.3
20:20 1016 30 845 24.95 17.7 63.8 17 -7.7 18.1
20:25 1016 30 845 24.95 17.5 63.5 17 -7.7 18.2
20:30 1016 30 845 24.95 17.4 63.3 17 -7.6 18.3
20:35 1016 30 845 24.95 17.2 63 17 -7.8 17.9
20:40 1016 30 845 24.95 17.1 62.8 18 -7.3 18.8
20:45 1016 30 845 24.95 16.9 62.4 18 -7.8 18
20:50 1016 30 845 24.95 16.8 62.2 18 -7.9 17.7
20:55 1016 30 845 24.95 16.7 62 18 -7.8 18
21:00 1016 30 845 24.95 16.5 61.6 18 -7.7 18.1
21:05 1016 30 845 24.95 16.3 61.3 18 -7.7 18.2
21:10 1016 30 845 24.95 16.1 60.9 19 -7.7 18.1
21:15 1016 30 845 24.95 15.9 60.6 19 -7.5 18.4
21:20 1016 30 845 24.95 15.7 60.3 20 -7.4 18.7
21:25 1016 30 845 24.95 15.6 60 19 -7.6 18.3
21:30 1016 30 845 24.95 15.5 59.9 20 -7.4 18.6
21:35 1016 30 845 24.95 15.3 59.5 21 -7 19.4
21:40 1016 30 845 24.95 15.2 59.3 20 -7.4 18.7
21:45 1016 30 845 24.95 15.1 59.1 20 -7.6 18.3
21:50 1016 30 845 24.95 15 59 21 -7.4 18.7
21:55 1016 30 845 24.95 14.9 58.9 21 -7.1 19.2
22:00 1016 30 845 24.95 14.9 58.9 20 -7.6 18.3
22:05 1016 30 845 24.95 14.9 58.8 20 -7.6 18.3
22:10 1016 30 845 24.95 14.9 58.8 21 -7.2 19.1
22:15 1016 30 845 24.95 14.8 58.7 21 -7.1 19.2
22:20 1016 30 845 24.95 14.8 58.6 21 -7 19.3
22:25 1016 30 845 24.95 14.7 58.4 21 -7.4 18.8
22:30 1016 30 845 24.95 14.5 58 22 -7.1 19.3
22:35 1016 30 845 24.95 14.2 57.5 22 -7 19.5
22:40 1016 30 845 24.95 14 57.2 23 -7 19.4
22:45 1016 30 845 24.95 13.9 57.1 23 -6.6 20.1
22:50 1016 30 846 24.98 13.8 56.8 23 -6.9 19.6
22:55 1016 30 846 24.98 13.6 56.6 24 -6.5 20.3
23:00 1016 30 846 24.98 13.3 55.9 24 -6.6 20.1
23:05 1016 30 846 24.98 13.2 55.8 24 -6.7 20
23:10 1016 30 846 24.98 13.2 55.8 25 -6.4 20.6
23:15 1016 30 846 24.98 13.2 55.7 25 -6.6 20.1
23:20 1016 30 846 24.98 13.2 55.8 24 -6.7 20
23:25 1017 30.03 846 24.98 13.2 55.7 24 -6.7 19.9
23:30 1016 30 846 24.98 13.3 56 24 -6.6 20.1
23:35 1016 30 846 24.98 13.3 56 25 -6.4 20.4
23:40 1016 30 846 24.98 13.5 56.3 24 -6.5 20.3
23:45 1016 30 846 24.98 13.7 56.6 24 -6.4 20.5
23:50 1016 30 846 24.98 13.8 56.8 24 -6.4 20.5
23:55 1016 30 846 24.98 13.7 56.7 25 -6.1 20.9
24:00 1016 30 846 24.98 13.7 56.6 25 -6.1 20.9